createdAt,value
2022-09-05T00:00:23.012Z,4.50
2022-09-05T00:06:02.798Z,4.10
2022-09-05T00:11:40.551Z,4.03
2022-09-05T00:16:50.185Z,4.38
2022-09-05T00:24:32.509Z,4.38
2022-09-05T00:27:56.005Z,4.03
2022-09-05T00:33:02.971Z,3.88
2022-09-05T00:38:29.096Z,4.47
2022-09-05T00:43:45.063Z,4.72
2022-09-05T00:48:50.981Z,4.40
2022-09-05T00:54:26.338Z,5.00
2022-09-05T01:00:17.656Z,4.53
2022-09-05T01:05:55.445Z,4.13
2022-09-05T01:11:19.970Z,4.93
2022-09-05T01:17:00.032Z,5.05
2022-09-05T01:23:10.000Z,5.13
2022-09-05T01:29:14.393Z,4.63
2022-09-05T01:34:07.793Z,5.20
2022-09-05T01:40:11.635Z,5.10
2022-09-05T01:45:03.383Z,4.82
2022-09-05T01:50:32.843Z,5.68
2022-09-05T01:56:05.206Z,4.90
2022-09-05T02:01:32.390Z,4.60
2022-09-05T02:06:43.908Z,5.22
2022-09-05T02:11:59.960Z,5.13
2022-09-05T02:17:50.367Z,5.13
2022-09-05T02:22:56.781Z,5.00
2022-09-05T02:28:12.455Z,5.15
2022-09-05T02:33:25.912Z,4.90
2022-09-05T02:40:12.558Z,4.93
2022-09-05T02:45:18.939Z,5.47
2022-09-05T02:52:21.275Z,5.15
2022-09-05T02:57:33.270Z,5.28
2022-09-05T03:01:38.075Z,5.88
2022-09-05T03:07:02.006Z,4.28
2022-09-05T03:12:41.412Z,4.65
2022-09-05T03:18:20.079Z,5.00
2022-09-05T03:23:50.479Z,5.20
2022-09-05T03:29:18.666Z,4.28
2022-09-05T03:34:39.253Z,4.65
2022-09-05T03:40:15.221Z,5.05
2022-09-05T03:45:37.773Z,4.65
2022-09-05T03:57:04.493Z,4.18
2022-09-05T03:57:27.458Z,4.25
2022-09-05T04:04:14.304Z,5.00
2022-09-05T04:08:18.782Z,4.25
2022-09-05T04:13:33.910Z,4.75
2022-09-05T04:18:47.944Z,4.00
2022-09-05T04:24:20.054Z,4.32
2022-09-05T04:29:45.273Z,4.40
2022-09-05T04:35:22.344Z,4.13
2022-09-05T04:40:44.644Z,4.30
2022-09-05T04:45:53.473Z,4.00
2022-09-05T04:51:40.271Z,4.45
2022-09-05T04:56:49.502Z,4.13
2022-09-05T05:06:12.395Z,3.75
2022-09-05T05:07:25.114Z,3.67
2022-09-05T05:18:02.674Z,3.33
2022-09-05T05:18:39.651Z,4.47
2022-09-05T05:23:52.022Z,3.55
2022-09-05T05:29:06.518Z,4.20
2022-09-05T05:34:37.054Z,3.60
2022-09-05T05:39:45.242Z,3.58
2022-09-05T05:44:53.833Z,3.40
2022-09-05T05:50:20.045Z,3.67
2022-09-05T05:55:51.357Z,3.72
2022-09-05T06:00:55.132Z,3.92
2022-09-05T06:06:14.901Z,3.38
2022-09-05T06:17:44.169Z,3.30
2022-09-05T06:23:33.468Z,3.75
2022-09-05T06:29:05.929Z,3.90
2022-09-05T06:34:30.894Z,3.60
2022-09-05T06:40:08.718Z,4.05
2022-09-05T06:45:27.822Z,4.75
2022-09-05T06:51:08.477Z,3.88
2022-09-05T06:56:14.433Z,3.70
2022-09-05T07:01:57.912Z,3.65
2022-09-05T07:07:06.434Z,3.78
2022-09-05T07:12:18.897Z,3.67
2022-09-05T07:18:06.219Z,4.88
2022-09-05T07:23:54.835Z,4.18
2022-09-05T07:28:44.661Z,3.90
2022-09-05T07:33:49.240Z,3.97
2022-09-05T07:39:12.271Z,4.13
2022-09-05T07:44:46.288Z,4.15
2022-09-05T07:50:32.440Z,4.50
2022-09-05T07:57:07.804Z,3.92
2022-09-05T08:00:58.338Z,4.13
2022-09-05T08:06:07.336Z,4.60
2022-09-05T08:11:23.362Z,3.70
2022-09-05T08:16:27.970Z,6.18
2022-09-05T08:21:48.744Z,4.45
2022-09-05T08:27:15.960Z,4.72
2022-09-05T08:32:34.693Z,4.28
2022-09-05T08:37:37.564Z,4.18
2022-09-05T08:44:58.230Z,4.63
2022-09-05T08:48:20.909Z,4.00
2022-09-05T08:53:46.154Z,5.53
2022-09-05T08:59:32.181Z,5.20
2022-09-05T09:05:01.573Z,4.90
2022-09-05T09:10:05.035Z,5.22
2022-09-05T09:15:20.978Z,6.50
2022-09-05T09:20:47.004Z,4.32
2022-09-05T09:26:11.116Z,5.13
2022-09-05T09:31:16.595Z,5.65
2022-09-05T09:36:43.342Z,5.10
2022-09-05T09:41:48.221Z,4.22
2022-09-05T09:46:51.897Z,5.80
2022-09-05T09:52:06.997Z,4.00
2022-09-05T09:57:41.723Z,4.43
2022-09-05T10:06:49.560Z,6.60
2022-09-05T10:10:51.118Z,4.30
2022-09-05T10:14:50.030Z,5.50
2022-09-05T10:20:39.840Z,4.00
2022-09-05T10:26:10.389Z,4.15
2022-09-05T10:33:28.545Z,4.47
2022-09-05T10:36:54.925Z,4.47
2022-09-05T10:42:25.259Z,4.22
2022-09-05T10:47:48.261Z,4.43
2022-09-05T10:53:07.849Z,4.07
2022-09-05T11:01:29.693Z,4.03
2022-09-05T11:04:37.085Z,4.33
2022-09-05T11:10:07.134Z,4.22
2022-09-05T11:15:33.620Z,4.28
2022-09-05T11:20:44.596Z,4.07
2022-09-05T11:25:51.068Z,4.75
2022-09-05T11:30:56.599Z,4.00
2022-09-05T11:40:07.455Z,3.90
2022-09-05T11:42:17.834Z,4.30
2022-09-05T11:48:04.278Z,4.28
2022-09-05T11:53:27.085Z,3.80
2022-09-05T11:58:56.998Z,4.97
2022-09-05T12:04:17.224Z,5.10
2022-09-05T12:09:34.059Z,4.30
2022-09-05T12:14:55.081Z,4.10
2022-09-05T12:20:16.761Z,4.22
2022-09-05T12:27:38.661Z,4.97
2022-09-05T12:32:41.782Z,4.30
2022-09-05T12:40:44.540Z,4.85
2022-09-05T12:42:51.138Z,5.05
2022-09-05T12:48:09.404Z,4.60
2022-09-05T12:53:18.554Z,5.22
2022-09-05T13:02:57.874Z,4.85
2022-09-05T13:04:17.201Z,4.87
2022-09-05T13:10:14.276Z,4.95
2022-09-05T13:20:34.180Z,4.75
2022-09-05T13:25:37.381Z,4.80
2022-09-05T13:37:54.078Z,4.18
2022-09-05T13:38:19.753Z,4.90
2022-09-05T13:41:59.315Z,5.97
2022-09-05T13:52:37.759Z,4.47
2022-09-05T13:57:51.133Z,5.03
2022-09-05T14:15:10.166Z,5.10
2022-09-05T14:20:24.121Z,4.57
2022-09-05T14:25:34.445Z,4.50
2022-09-05T14:33:45.375Z,4.22
2022-09-05T14:37:40.948Z,4.80
2022-09-05T14:42:09.392Z,4.57
2022-09-05T14:47:32.282Z,4.22
2022-09-05T14:52:43.541Z,4.40
2022-09-05T15:02:58.243Z,4.95
2022-09-05T15:03:12.493Z,4.78
2022-09-05T15:09:53.618Z,5.15
2022-09-05T15:13:57.019Z,6.43
2022-09-05T15:18:58.876Z,5.10
2022-09-05T15:24:13.427Z,5.05
2022-09-05T15:29:15.649Z,5.25
2022-09-05T15:34:26.295Z,5.32
2022-09-05T15:39:34.163Z,4.97
2022-09-05T15:44:53.252Z,5.10
2022-09-05T15:50:01.660Z,5.60
2022-09-05T15:55:12.009Z,5.18
2022-09-05T16:00:32.165Z,5.07
2022-09-05T16:10:37.191Z,5.35
2022-09-05T16:23:18.357Z,5.03
2022-09-05T16:23:32.267Z,4.68
2022-09-05T16:28:34.821Z,4.70
2022-09-05T16:33:36.956Z,4.90
2022-09-05T16:38:49.445Z,4.43
2022-09-05T16:44:10.807Z,6.32
2022-09-05T16:49:42.063Z,5.60
2022-09-05T16:55:03.798Z,5.00
2022-09-05T17:00:08.489Z,5.05
2022-09-05T17:05:29.801Z,5.22
2022-09-05T17:10:58.226Z,4.70
2022-09-05T17:16:09.144Z,4.38
2022-09-05T17:21:29.998Z,4.82
2022-09-05T17:29:45.583Z,4.50
2022-09-05T17:32:10.829Z,5.18
2022-09-05T17:37:49.080Z,4.88
2022-09-05T17:43:03.665Z,5.10
2022-09-05T17:48:05.532Z,5.18
2022-09-05T17:53:26.845Z,5.32
2022-09-05T17:58:36.262Z,5.13
2022-09-05T18:03:53.039Z,4.85
2022-09-05T18:08:56.341Z,4.72
2022-09-05T18:14:02.239Z,5.28
2022-09-05T18:19:33.591Z,4.97
2022-09-05T18:24:52.492Z,4.80
2022-09-05T18:30:05.908Z,5.77
2022-09-05T18:35:37.283Z,4.82
2022-09-05T18:40:53.355Z,4.60
2022-09-05T18:46:13.598Z,4.85
2022-09-05T18:51:20.143Z,4.85
2022-09-05T19:02:01.076Z,5.13
2022-09-05T19:07:18.305Z,5.07
2022-09-05T19:12:34.909Z,4.55
2022-09-05T19:17:47.172Z,4.63
2022-09-05T19:23:11.051Z,5.03
2022-09-05T19:36:56.640Z,4.30
2022-09-05T19:37:13.089Z,4.07
2022-09-05T19:42:20.032Z,4.78
2022-09-05T19:47:42.049Z,5.65
2022-09-05T19:49:58.502Z,4.78
2022-09-05T19:55:02.142Z,4.30
2022-09-05T20:00:05.179Z,3.85
2022-09-05T20:05:27.471Z,4.03
2022-09-05T20:10:35.180Z,4.40
2022-09-05T20:15:37.518Z,4.40
2022-09-05T20:20:54.259Z,4.20
2022-09-05T20:25:57.947Z,3.90
2022-09-05T20:31:08.518Z,3.97
2022-09-05T20:43:22.465Z,4.25
2022-09-05T20:43:32.278Z,4.35
2022-09-05T20:49:27.363Z,4.10
2022-09-05T20:54:18.675Z,3.63
2022-09-05T20:58:31.695Z,3.60
2022-09-05T21:03:39.908Z,3.70
2022-09-05T21:08:41.802Z,3.17
2022-09-05T21:13:52.488Z,3.25
2022-09-05T21:18:55.085Z,2.97
2022-09-05T21:24:17.587Z,3.00
2022-09-05T21:29:32.337Z,3.08
2022-09-05T21:34:45.367Z,3.10
2022-09-05T21:39:59.678Z,3.30
2022-09-05T21:47:39.315Z,3.03
2022-09-05T21:50:31.354Z,2.75
2022-09-05T21:59:20.627Z,2.45
2022-09-05T22:00:57.064Z,3.10
2022-09-05T22:05:59.159Z,1.98
2022-09-05T22:11:10.689Z,2.33
2022-09-05T22:16:15.048Z,2.10
2022-09-05T22:21:32.853Z,2.03
2022-09-05T22:26:52.113Z,2.07
2022-09-05T22:32:05.242Z,1.90
2022-09-05T22:37:07.029Z,1.90
2022-09-05T22:42:10.619Z,1.75
2022-09-05T22:47:12.756Z,1.60
2022-09-05T22:52:14.499Z,2.30
2022-09-05T22:57:16.293Z,1.67
2022-09-05T23:02:18.018Z,1.80
2022-09-05T23:07:20.926Z,1.90
2022-09-05T23:12:22.689Z,1.77
2022-09-05T23:17:24.504Z,1.55
2022-09-05T23:22:26.277Z,1.60
2022-09-05T23:27:29.889Z,1.60
2022-09-05T23:32:31.717Z,1.70
2022-09-05T23:37:33.486Z,1.40
2022-09-05T23:42:35.281Z,1.40
2022-09-05T23:47:38.672Z,1.52
2022-09-05T23:52:42.370Z,1.30
2022-09-05T23:57:44.782Z,1.40
